WXM80 ListenWXM80 Stop

You find our weather info also at:

UK Metoffice

WeatherCloud

Weather Underground

Northeastern Weather Network

AWEKAS

Citizen Weather Observer Program (CWOP)

HAMweather, WeatherForYou, PWS Weather


Weather Underground History page Text

Daily Summary for October 26, 2017 Units:  Both    English   Metric
« Previous Day
Next Day »
Daily Weekly Monthly Yearly Custom
  High: Low: Average:
Temperature: 58.7 °F /  14.8 °C 51.9 °F /  11.1 °C 56.5 °F /  13.6 °C
Dew Point: 56.4 °F /  13.6 °C 40.6 °F /  4.8 °C 47.9 °F /  8.8 °C
Humidity: 94 % 62 % 73 %
Wind Speed: 9.2 mph /  14.8 km/h - 3.7 mph /  6 km/h
Wind Gust: 17.3 mph /  27.8 km/h - -
Wind:- - SW
Pressure: 29.87 in /  1011.4 hPa 29.57 in /  1001.2 hPa -
Precipitation: 0.02 in /  0.51 mm    
Historical Graphs
 
 
Tabular Data for October 26, 2017
Time Temperature Dew Point Pressure Wind Wind Speed Wind Gust Humidity Rainfall Rate (Hourly)
00:01 58.1 °F /  14.5 °C 56.4 °F /  13.6 °C 29.65 in /  1003.9 hPa West 2.9 mph /  4.7 km/h 8.1 mph /  13 km/h 94 % 0.00 in /  0 mm
00:06 58.0 °F /  14.4 °C 56.0 °F /  13.3 °C 29.66 in /  1004.3 hPa NW 1.6 mph /  2.6 km/h 5.8 mph /  9.3 km/h 93 % 0.00 in /  0 mm
00:11 57.9 °F /  14.4 °C 55.6 °F /  13.1 °C 29.66 in /  1004.3 hPa NW 0.1 mph /  0.2 km/h 4.6 mph /  7.4 km/h 92 % 0.00 in /  0 mm
00:16 57.7 °F /  14.3 °C 54.2 °F /  12.3 °C 29.65 in /  1003.9 hPa NW 2.4 mph /  3.9 km/h 5.8 mph /  9.3 km/h 88 % 0.00 in /  0 mm
00:21 57.7 °F /  14.3 °C 52.9 °F /  11.6 °C 29.64 in /  1003.6 hPa North 3.1 mph /  5 km/h 4.6 mph /  7.4 km/h 84 % 0.00 in /  0 mm
00:26 57.8 °F /  14.3 °C 52.0 °F /  11.1 °C 29.64 in /  1003.6 hPa NW 2.0 mph /  3.2 km/h 5.8 mph /  9.3 km/h 81 % 0.00 in /  0 mm
00:31 57.9 °F /  14.4 °C 51.1 °F /  10.6 °C 29.65 in /  1003.9 hPa NNW 1.5 mph /  2.4 km/h 5.8 mph /  9.3 km/h 78 % 0.00 in /  0 mm
00:36 58.0 °F /  14.4 °C 51.2 °F /  10.7 °C 29.67 in /  1004.6 hPa WNW 4.7 mph /  7.6 km/h 5.8 mph /  9.3 km/h 78 % 0.00 in /  0 mm
00:41 58.1 °F /  14.5 °C 50.9 °F /  10.5 °C 29.65 in /  1003.9 hPa NW 1.4 mph /  2.3 km/h 8.0 mph /  12.9 km/h 77 % 0.00 in /  0 mm
00:46 58.3 °F /  14.6 °C 51.1 °F /  10.6 °C 29.65 in /  1003.9 hPa SW 3.3 mph /  5.3 km/h 4.6 mph /  7.4 km/h 77 % 0.00 in /  0 mm
00:51 58.4 °F /  14.7 °C 50.9 °F /  10.5 °C 29.67 in /  1004.6 hPa West 3.0 mph /  4.8 km/h 7.0 mph /  11.3 km/h 76 % 0.00 in /  0 mm
00:56 58.5 °F /  14.7 °C 51.0 °F /  10.6 °C 29.65 in /  1003.9 hPa WNW 1.1 mph /  1.8 km/h 2.3 mph /  3.7 km/h 76 % 0.00 in /  0 mm
01:01 58.6 °F /  14.8 °C 51.4 °F /  10.8 °C 29.65 in /  1003.9 hPa North 2.4 mph /  3.9 km/h 3.5 mph /  5.6 km/h 77 % 0.00 in /  0 mm
01:06 58.6 °F /  14.8 °C 50.7 °F /  10.4 °C 29.66 in /  1004.3 hPa WNW 4.1 mph /  6.6 km/h 5.0 mph /  8 km/h 75 % 0.00 in /  0 mm
01:11 58.6 °F /  14.8 °C 50.3 °F /  10.2 °C 29.66 in /  1004.3 hPa WNW 5.0 mph /  8 km/h 8.1 mph /  13 km/h 74 % 0.00 in /  0 mm
01:22 58.7 °F /  14.8 °C 49.3 °F /  9.6 °C 29.67 in /  1004.6 hPa North 0.8 mph /  1.3 km/h 5.8 mph /  9.3 km/h 71 % 0.00 in /  0 mm
01:27 58.7 °F /  14.8 °C 49.3 °F /  9.6 °C 29.68 in /  1005 hPa WNW 6.3 mph /  10.1 km/h 11.5 mph /  18.5 km/h 71 % 0.00 in /  0 mm
01:32 58.7 °F /  14.8 °C 48.6 °F /  9.2 °C 29.68 in /  1005 hPa NNW 5.4 mph /  8.7 km/h 9.2 mph /  14.8 km/h 69 % 0.00 in /  0 mm
01:37 58.7 °F /  14.8 °C 48.9 °F /  9.4 °C 29.66 in /  1004.3 hPa NW 4.5 mph /  7.2 km/h 8.1 mph /  13 km/h 70 % 0.00 in /  0 mm
01:42 58.6 °F /  14.8 °C 48.5 °F /  9.2 °C 29.66 in /  1004.3 hPa NNE 1.4 mph /  2.3 km/h 6.0 mph /  9.7 km/h 69 % 0.00 in /  0 mm
01:47 58.6 °F /  14.8 °C 48.5 °F /  9.2 °C 29.65 in /  1003.9 hPa WNW 3.9 mph /  6.3 km/h 8.1 mph /  13 km/h 69 % 0.00 in /  0 mm
01:52 58.5 °F /  14.7 °C 48.4 °F /  9.1 °C 29.66 in /  1004.3 hPa NNE 4.3 mph /  6.9 km/h 9.2 mph /  14.8 km/h 69 % 0.00 in /  0 mm
01:57 58.5 °F /  14.7 °C 48.4 °F /  9.1 °C 29.66 in /  1004.3 hPa West 4.1 mph /  6.6 km/h 9.2 mph /  14.8 km/h 69 % 0.00 in /  0 mm
02:02 58.5 °F /  14.7 °C 48.7 °F /  9.3 °C 29.66 in /  1004.3 hPa NW 4.5 mph /  7.2 km/h 9.2 mph /  14.8 km/h 70 % 0.00 in /  0 mm
02:07 58.4 °F /  14.7 °C 48.3 °F /  9.1 °C 29.65 in /  1003.9 hPa WNW 2.2 mph /  3.5 km/h 5.8 mph /  9.3 km/h 69 % 0.00 in /  0 mm
02:12 58.3 °F /  14.6 °C 48.6 °F /  9.2 °C 29.63 in /  1003.3 hPa NNW 0.4 mph /  0.6 km/h 2.3 mph /  3.7 km/h 70 % 0.00 in /  0 mm
02:17 58.2 °F /  14.6 °C 48.1 °F /  8.9 °C 29.62 in /  1002.9 hPa NW 1.8 mph /  2.9 km/h 6.9 mph /  11.1 km/h 69 % 0.00 in /  0 mm
02:22 58.1 °F /  14.5 °C 48.0 °F /  8.9 °C 29.61 in /  1002.6 hPa NNE 5.2 mph /  8.4 km/h 8.1 mph /  13 km/h 69 % 0.00 in /  0 mm
02:27 58.1 °F /  14.5 °C 48.0 °F /  8.9 °C 29.60 in /  1002.3 hPa North 4.5 mph /  7.2 km/h 6.9 mph /  11.1 km/h 69 % 0.00 in /  0 mm
02:32 58.0 °F /  14.4 °C 49.0 °F /  9.4 °C 29.59 in /  1001.9 hPa NW 6.8 mph /  10.9 km/h 10.4 mph /  16.7 km/h 72 % 0.00 in /  0 mm
02:37 58.0 °F /  14.4 °C 49.0 °F /  9.4 °C 29.57 in /  1001.2 hPa NE 6.6 mph /  10.6 km/h 11.0 mph /  17.7 km/h 72 % 0.00 in /  0 mm
02:42 58.1 °F /  14.5 °C 49.5 °F /  9.7 °C 29.58 in /  1001.6 hPa NNE 6.4 mph /  10.3 km/h 11.5 mph /  18.5 km/h 73 % 0.00 in /  0 mm
02:48 58.2 °F /  14.6 °C 50.0 °F /  10 °C 29.60 in /  1002.3 hPa North 5.1 mph /  8.2 km/h 10.4 mph /  16.7 km/h 74 % 0.00 in /  0 mm
02:53 58.2 °F /  14.6 °C 50.3 °F /  10.2 °C 29.61 in /  1002.6 hPa NNW 3.3 mph /  5.3 km/h 5.8 mph /  9.3 km/h 75 % 0.00 in /  0 mm
02:58 58.2 °F /  14.6 °C 50.3 °F /  10.2 °C 29.61 in /  1002.6 hPa NNW 4.0 mph /  6.4 km/h 8.0 mph /  12.9 km/h 75 % 0.00 in /  0 mm
03:03 58.2 °F /  14.6 °C 50.3 °F /  10.2 °C 29.62 in /  1002.9 hPa North 4.2 mph /  6.8 km/h 8.1 mph /  13 km/h 75 % 0.00 in /  0 mm
03:08 58.2 °F /  14.6 °C 50.7 °F /  10.4 °C 29.61 in /  1002.6 hPa NNW 6.5 mph /  10.5 km/h 9.2 mph /  14.8 km/h 76 % 0.00 in /  0 mm
03:13 58.2 °F /  14.6 °C 51.0 °F /  10.6 °C 29.61 in /  1002.6 hPa NNW 5.8 mph /  9.3 km/h 8.1 mph /  13 km/h 77 % 0.00 in /  0 mm
03:18 58.2 °F /  14.6 °C 51.0 °F /  10.6 °C 29.62 in /  1002.9 hPa North 5.7 mph /  9.2 km/h 10.4 mph /  16.7 km/h 77 % 0.00 in /  0 mm
03:23 58.2 °F /  14.6 °C 51.4 °F /  10.8 °C 29.61 in /  1002.6 hPa NW 3.8 mph /  6.1 km/h 9.2 mph /  14.8 km/h 78 % 0.00 in /  0 mm
03:28 58.2 °F /  14.6 °C 51.0 °F /  10.6 °C 29.62 in /  1002.9 hPa NE 2.6 mph /  4.2 km/h 8.0 mph /  12.9 km/h 77 % 0.00 in /  0 mm
03:33 58.2 °F /  14.6 °C 51.4 °F /  10.8 °C 29.64 in /  1003.6 hPa NNW 3.7 mph /  6 km/h 8.1 mph /  13 km/h 78 % 0.00 in /  0 mm
03:38 58.2 °F /  14.6 °C 51.0 °F /  10.6 °C 29.64 in /  1003.6 hPa NNE 4.4 mph /  7.1 km/h 7.0 mph /  11.3 km/h 77 % 0.00 in /  0 mm
03:43 58.2 °F /  14.6 °C 51.0 °F /  10.6 °C 29.62 in /  1002.9 hPa WNW 0.8 mph /  1.3 km/h 5.8 mph /  9.3 km/h 77 % 0.00 in /  0 mm
03:48 58.2 °F /  14.6 °C 51.0 °F /  10.6 °C 29.62 in /  1002.9 hPa NNE 5.2 mph /  8.4 km/h 10.4 mph /  16.7 km/h 77 % 0.00 in /  0 mm
03:53 58.1 °F /  14.5 °C 50.6 °F /  10.3 °C 29.63 in /  1003.3 hPa NNW 2.2 mph /  3.5 km/h 5.8 mph /  9.3 km/h 76 % 0.00 in /  0 mm
03:58 58.1 °F /  14.5 °C 50.6 °F /  10.3 °C 29.61 in /  1002.6 hPa NW 5.9 mph /  9.5 km/h 12.0 mph /  19.3 km/h 76 % 0.00 in /  0 mm
04:03 58.1 °F /  14.5 °C 50.6 °F /  10.3 °C 29.62 in /  1002.9 hPa North 2.9 mph /  4.7 km/h 4.6 mph /  7.4 km/h 76 % 0.00 in /  0 mm
04:09 58.1 °F /  14.5 °C 50.6 °F /  10.3 °C 29.63 in /  1003.3 hPa NNE 0.8 mph /  1.3 km/h 4.6 mph /  7.4 km/h 76 % 0.00 in /  0 mm
04:14 58.0 °F /  14.4 °C 49.8 °F /  9.9 °C 29.62 in /  1002.9 hPa NW 4.9 mph /  7.9 km/h 11.5 mph /  18.5 km/h 74 % 0.00 in /  0 mm
04:19 58.0 °F /  14.4 °C 49.8 °F /  9.9 °C 29.60 in /  1002.3 hPa NNE 6.7 mph /  10.8 km/h 11.5 mph /  18.5 km/h 74 % 0.00 in /  0 mm
04:24 58.0 °F /  14.4 °C 49.8 °F /  9.9 °C 29.61 in /  1002.6 hPa North 8.2 mph /  13.2 km/h 12.0 mph /  19.3 km/h 74 % 0.00 in /  0 mm
04:29 57.9 °F /  14.4 °C 49.7 °F /  9.8 °C 29.61 in /  1002.6 hPa NNE 5.1 mph /  8.2 km/h 11.5 mph /  18.5 km/h 74 % 0.00 in /  0 mm
04:34 57.9 °F /  14.4 °C 49.7 °F /  9.8 °C 29.61 in /  1002.6 hPa NNE 5.2 mph /  8.4 km/h 10.4 mph /  16.7 km/h 74 % 0.00 in /  0 mm
04:39 57.8 °F /  14.3 °C 49.2 °F /  9.6 °C 29.62 in /  1002.9 hPa North 6.3 mph /  10.1 km/h 8.1 mph /  13 km/h 73 % 0.00 in /  0 mm
04:44 57.8 °F /  14.3 °C 49.2 °F /  9.6 °C 29.62 in /  1002.9 hPa NNE 4.1 mph /  6.6 km/h 6.9 mph /  11.1 km/h 73 % 0.00 in /  0 mm
04:49 57.7 °F /  14.3 °C 49.1 °F /  9.5 °C 29.63 in /  1003.3 hPa NW 2.7 mph /  4.3 km/h 8.1 mph /  13 km/h 73 % 0.00 in /  0 mm
04:54 57.8 °F /  14.3 °C 49.6 °F /  9.8 °C 29.63 in /  1003.3 hPa North 2.4 mph /  3.9 km/h 8.1 mph /  13 km/h 74 % 0.00 in /  0 mm
04:59 57.7 °F /  14.3 °C 49.1 °F /  9.5 °C 29.62 in /  1002.9 hPa North 4.4 mph /  7.1 km/h 8.0 mph /  12.9 km/h 73 % 0.00 in /  0 mm
05:04 57.7 °F /  14.3 °C 49.1 °F /  9.5 °C 29.61 in /  1002.6 hPa NNE 4.8 mph /  7.7 km/h 10.4 mph /  16.7 km/h 73 % 0.00 in /  0 mm
05:09 57.7 °F /  14.3 °C 49.1 °F /  9.5 °C 29.60 in /  1002.3 hPa NNW 5.9 mph /  9.5 km/h 11.5 mph /  18.5 km/h 73 % 0.00 in /  0 mm
05:14 57.7 °F /  14.3 °C 49.1 °F /  9.5 °C 29.60 in /  1002.3 hPa NNE 7.3 mph /  11.7 km/h 12.0 mph /  19.3 km/h 73 % 0.00 in /  0 mm
05:19 57.7 °F /  14.3 °C 49.1 °F /  9.5 °C 29.60 in /  1002.3 hPa NE 5.6 mph /  9 km/h 13.0 mph /  20.9 km/h 73 % 0.00 in /  0 mm
05:25 57.7 °F /  14.3 °C 48.7 °F /  9.3 °C 29.61 in /  1002.6 hPa NNW 7.7 mph /  12.4 km/h 12.0 mph /  19.3 km/h 72 % 0.00 in /  0 mm
05:30 57.7 °F /  14.3 °C 49.5 °F /  9.7 °C 29.61 in /  1002.6 hPa NNE 5.6 mph /  9 km/h 11.5 mph /  18.5 km/h 74 % 0.00 in /  0 mm
05:35 57.7 °F /  14.3 °C 49.5 °F /  9.7 °C 29.61 in /  1002.6 hPa NNE 4.3 mph /  6.9 km/h 11.5 mph /  18.5 km/h 74 % 0.00 in /  0 mm
05:40 57.7 °F /  14.3 °C 49.8 °F /  9.9 °C 29.63 in /  1003.3 hPa NNE 5.5 mph /  8.9 km/h 10.4 mph /  16.7 km/h 75 % 0.00 in /  0 mm
05:45 57.7 °F /  14.3 °C 49.8 °F /  9.9 °C 29.62 in /  1002.9 hPa NNE 3.9 mph /  6.3 km/h 8.1 mph /  13 km/h 75 % 0.00 in /  0 mm
05:50 57.7 °F /  14.3 °C 49.5 °F /  9.7 °C 29.63 in /  1003.3 hPa ENE 6.6 mph /  10.6 km/h 11.5 mph /  18.5 km/h 74 % 0.00 in /  0 mm
05:55 57.6 °F /  14.2 °C 49.4 °F /  9.7 °C 29.63 in /  1003.3 hPa NNW 1.9 mph /  3.1 km/h 8.1 mph /  13 km/h 74 % 0.00 in /  0 mm
06:00 57.6 °F /  14.2 °C 49.4 °F /  9.7 °C 29.63 in /  1003.3 hPa NNE 6.5 mph /  10.5 km/h 9.2 mph /  14.8 km/h 74 % 0.00 in /  0 mm
06:05 57.5 °F /  14.2 °C 49.3 °F /  9.6 °C 29.63 in /  1003.3 hPa NNE 6.2 mph /  10 km/h 11.5 mph /  18.5 km/h 74 % 0.00 in /  0 mm
06:10 57.5 °F /  14.2 °C 49.3 °F /  9.6 °C 29.63 in /  1003.3 hPa North 6.7 mph /  10.8 km/h 9.2 mph /  14.8 km/h 74 % 0.00 in /  0 mm
06:15 57.5 °F /  14.2 °C 49.3 °F /  9.6 °C 29.62 in /  1002.9 hPa North 7.0 mph /  11.3 km/h 13.8 mph /  22.2 km/h 74 % 0.00 in /  0 mm
06:20 57.4 °F /  14.1 °C 49.5 °F /  9.7 °C 29.61 in /  1002.6 hPa NNE 2.9 mph /  4.7 km/h 5.0 mph /  8 km/h 75 % 0.00 in /  0 mm
06:25 57.3 °F /  14.1 °C 49.1 °F /  9.5 °C 29.62 in /  1002.9 hPa NW 3.6 mph /  5.8 km/h 6.9 mph /  11.1 km/h 74 % 0.00 in /  0 mm
06:30 57.3 °F /  14.1 °C 49.1 °F /  9.5 °C 29.62 in /  1002.9 hPa NNW 3.4 mph /  5.5 km/h 11.5 mph /  18.5 km/h 74 % 0.00 in /  0 mm
06:35 57.2 °F /  14 °C 49.0 °F /  9.4 °C 29.62 in /  1002.9 hPa North 4.1 mph /  6.6 km/h 6.9 mph /  11.1 km/h 74 % 0.00 in /  0 mm
06:40 57.2 °F /  14 °C 49.3 °F /  9.6 °C 29.61 in /  1002.6 hPa NW 6.2 mph /  10 km/h 8.1 mph /  13 km/h 75 % 0.00 in /  0 mm
06:45 57.2 °F /  14 °C 49.0 °F /  9.4 °C 29.61 in /  1002.6 hPa NW 5.6 mph /  9 km/h 11.5 mph /  18.5 km/h 74 % 0.00 in /  0 mm
06:51 57.2 °F /  14 °C 49.3 °F /  9.6 °C 29.61 in /  1002.6 hPa NNE 3.0 mph /  4.8 km/h 8.0 mph /  12.9 km/h 75 % 0.00 in /  0 mm
06:56 57.2 °F /  14 °C 49.3 °F /  9.6 °C 29.61 in /  1002.6 hPa NNW 2.0 mph /  3.2 km/h 8.0 mph /  12.9 km/h 75 % 0.00 in /  0 mm
07:01 57.1 °F /  13.9 °C 48.9 °F /  9.4 °C 29.60 in /  1002.3 hPa NNE 5.0 mph /  8 km/h 11.5 mph /  18.5 km/h 74 % 0.00 in /  0 mm
07:06 57.0 °F /  13.9 °C 48.8 °F /  9.3 °C 29.60 in /  1002.3 hPa North 6.0 mph /  9.7 km/h 12.0 mph /  19.3 km/h 74 % 0.00 in /  0 mm
07:11 56.9 °F /  13.8 °C 48.7 °F /  9.3 °C 29.60 in /  1002.3 hPa North 3.0 mph /  4.8 km/h 10.0 mph /  16.1 km/h 74 % 0.00 in /  0 mm
07:16 56.9 °F /  13.8 °C 49.1 °F /  9.5 °C 29.61 in /  1002.6 hPa North 6.0 mph /  9.7 km/h 15.0 mph /  24.1 km/h 75 % 0.00 in /  0 mm
07:21 56.8 °F /  13.8 °C 49.3 °F /  9.6 °C 29.61 in /  1002.6 hPa NNE 5.0 mph /  8 km/h 12.0 mph /  19.3 km/h 76 % 0.00 in /  0 mm
07:26 56.8 °F /  13.8 °C 49.0 °F /  9.4 °C 29.62 in /  1002.9 hPa North 3.0 mph /  4.8 km/h 10.0 mph /  16.1 km/h 75 % 0.00 in /  0 mm
07:31 56.8 °F /  13.8 °C 49.3 °F /  9.6 °C 29.61 in /  1002.6 hPa NNW 2.0 mph /  3.2 km/h 7.0 mph /  11.3 km/h 76 % 0.00 in /  0 mm
07:36 56.7 °F /  13.7 °C 49.2 °F /  9.6 °C 29.61 in /  1002.6 hPa NNW 5.0 mph /  8 km/h 12.0 mph /  19.3 km/h 76 % 0.00 in /  0 mm
07:41 56.7 °F /  13.7 °C 48.9 °F /  9.4 °C 29.61 in /  1002.6 hPa NE 2.7 mph /  4.3 km/h 9.2 mph /  14.8 km/h 75 % 0.00 in /  0 mm
07:46 56.7 °F /  13.7 °C 49.2 °F /  9.6 °C 29.61 in /  1002.6 hPa North 2.0 mph /  3.2 km/h 12.0 mph /  19.3 km/h 76 % 0.00 in /  0 mm
07:50 56.7 °F /  13.7 °C 49.2 °F /  9.6 °C 29.61 in /  1002.6 hPa NNE 3.6 mph /  5.8 km/h 8.1 mph /  13 km/h 76 % 0.00 in /  0 mm
07:56 56.7 °F /  13.7 °C 49.2 °F /  9.6 °C 29.60 in /  1002.3 hPa NNW 6.0 mph /  9.7 km/h 12.0 mph /  19.3 km/h 76 % 0.00 in /  0 mm
08:01 56.6 °F /  13.7 °C 49.1 °F /  9.5 °C 29.61 in /  1002.6 hPa NNE 3.2 mph /  5.1 km/h 6.9 mph /  11.1 km/h 76 % 0.00 in /  0 mm
08:06 56.6 °F /  13.7 °C 49.5 °F /  9.7 °C 29.61 in /  1002.6 hPa NNW 4.4 mph /  7.1 km/h 10.4 mph /  16.7 km/h 77 % 0.00 in /  0 mm
08:11 56.6 °F /  13.7 °C 49.1 °F /  9.5 °C 29.60 in /  1002.3 hPa NNE 5.0 mph /  8 km/h 9.2 mph /  14.8 km/h 76 % 0.00 in /  0 mm
08:16 56.5 °F /  13.6 °C 49.0 °F /  9.4 °C 29.61 in /  1002.6 hPa NNW 3.3 mph /  5.3 km/h 10.4 mph /  16.7 km/h 76 % 0.00 in /  0 mm
08:21 56.5 °F /  13.6 °C 49.0 °F /  9.4 °C 29.61 in /  1002.6 hPa NNE 5.3 mph /  8.5 km/h 11.5 mph /  18.5 km/h 76 % 0.00 in /  0 mm
08:26 56.4 °F /  13.6 °C 49.3 °F /  9.6 °C 29.61 in /  1002.6 hPa North 4.4 mph /  7.1 km/h 10.4 mph /  16.7 km/h 77 % 0.00 in /  0 mm
08:31 56.4 °F /  13.6 °C 49.3 °F /  9.6 °C 29.62 in /  1002.9 hPa WNW 2.8 mph /  4.5 km/h 6.0 mph /  9.7 km/h 77 % 0.00 in /  0 mm
08:36 56.4 °F /  13.6 °C 48.9 °F /  9.4 °C 29.62 in /  1002.9 hPa NNW 5.8 mph /  9.3 km/h 8.1 mph /  13 km/h 76 % 0.00 in /  0 mm
08:41 56.4 °F /  13.6 °C 49.3 °F /  9.6 °C 29.62 in /  1002.9 hPa NNE 1.4 mph /  2.3 km/h 8.1 mph /  13 km/h 77 % 0.00 in /  0 mm
08:46 56.4 °F /  13.6 °C 49.3 °F /  9.6 °C 29.62 in /  1002.9 hPa NNW 7.1 mph /  11.4 km/h 10.4 mph /  16.7 km/h 77 % 0.00 in /  0 mm
08:51 56.3 °F /  13.5 °C 48.8 °F /  9.3 °C 29.62 in /  1002.9 hPa ENE 4.0 mph /  6.4 km/h 10.4 mph /  16.7 km/h 76 % 0.00 in /  0 mm
08:56 56.3 °F /  13.5 °C 48.8 °F /  9.3 °C 29.63 in /  1003.3 hPa NNW 1.1 mph /  1.8 km/h 3.5 mph /  5.6 km/h 76 % 0.00 in /  0 mm
09:01 56.3 °F /  13.5 °C 49.2 °F /  9.6 °C 29.63 in /  1003.3 hPa NW 2.0 mph /  3.2 km/h 4.6 mph /  7.4 km/h 77 % 0.00 in /  0 mm
09:06 56.3 °F /  13.5 °C 49.2 °F /  9.6 °C 29.63 in /  1003.3 hPa NE 2.2 mph /  3.5 km/h 9.2 mph /  14.8 km/h 77 % 0.00 in /  0 mm
09:11 56.3 °F /  13.5 °C 48.8 °F /  9.3 °C 29.63 in /  1003.3 hPa NNW 3.7 mph /  6 km/h 9.2 mph /  14.8 km/h 76 % 0.00 in /  0 mm
09:17 56.4 °F /  13.6 °C 48.9 °F /  9.4 °C 29.63 in /  1003.3 hPa NNW 2.4 mph /  3.9 km/h 11.5 mph /  18.5 km/h 76 % 0.00 in /  0 mm
09:22 56.4 °F /  13.6 °C 48.9 °F /  9.4 °C 29.63 in /  1003.3 hPa WSW 3.4 mph /  5.5 km/h 7.0 mph /  11.3 km/h 76 % 0.00 in /  0 mm
09:27 56.4 °F /  13.6 °C 49.3 °F /  9.6 °C 29.63 in /  1003.3 hPa NNW 3.0 mph /  4.8 km/h 5.8 mph /  9.3 km/h 77 % 0.00 in /  0 mm
09:32 56.5 °F /  13.6 °C 49.0 °F /  9.4 °C 29.63 in /  1003.3 hPa WNW 1.6 mph /  2.6 km/h 5.8 mph /  9.3 km/h 76 % 0.00 in /  0 mm
09:37 56.5 °F /  13.6 °C 48.7 °F /  9.3 °C 29.63 in /  1003.3 hPa North 6.5 mph /  10.5 km/h 10.4 mph /  16.7 km/h 75 % 0.00 in /  0 mm
09:42 56.6 °F /  13.7 °C 49.1 °F /  9.5 °C 29.63 in /  1003.3 hPa NNE 2.3 mph /  3.7 km/h 5.8 mph /  9.3 km/h 76 % 0.00 in /  0 mm
09:47 56.6 °F /  13.7 °C 48.4 °F /  9.1 °C 29.63 in /  1003.3 hPa NW 4.0 mph /  6.4 km/h 8.1 mph /  13 km/h 74 % 0.00 in /  0 mm
09:52 56.7 °F /  13.7 °C 49.2 °F /  9.6 °C 29.63 in /  1003.3 hPa West 3.6 mph /  5.8 km/h 9.2 mph /  14.8 km/h 76 % 0.00 in /  0 mm
09:57 56.8 °F /  13.8 °C 48.6 °F /  9.2 °C 29.63 in /  1003.3 hPa NW 1.6 mph /  2.6 km/h 5.8 mph /  9.3 km/h 74 % 0.00 in /  0 mm
10:02 56.8 °F /  13.8 °C 48.6 °F /  9.2 °C 29.64 in /  1003.6 hPa North 4.3 mph /  6.9 km/h 6.0 mph /  9.7 km/h 74 % 0.00 in /  0 mm
10:07 56.8 °F /  13.8 °C 49.0 °F /  9.4 °C 29.63 in /  1003.3 hPa NNE 1.7 mph /  2.7 km/h 9.2 mph /  14.8 km/h 75 % 0.00 in /  0 mm
10:12 56.8 °F /  13.8 °C 48.6 °F /  9.2 °C 29.63 in /  1003.3 hPa North 6.8 mph /  10.9 km/h 9.2 mph /  14.8 km/h 74 % 0.00 in /  0 mm
10:17 56.8 °F /  13.8 °C 48.6 °F /  9.2 °C 29.63 in /  1003.3 hPa North 3.6 mph /  5.8 km/h 6.9 mph /  11.1 km/h 74 % 0.00 in /  0 mm
10:22 56.8 °F /  13.8 °C 48.6 °F /  9.2 °C 29.64 in /  1003.6 hPa NW 1.4 mph /  2.3 km/h 9.2 mph /  14.8 km/h 74 % 0.00 in /  0 mm
10:27 56.8 °F /  13.8 °C 49.0 °F /  9.4 °C 29.63 in /  1003.3 hPa North 3.9 mph /  6.3 km/h 6.0 mph /  9.7 km/h 75 % 0.00 in /  0 mm
10:33 56.7 °F /  13.7 °C 48.1 °F /  8.9 °C 29.63 in /  1003.3 hPa NNE 6.6 mph /  10.6 km/h 11.5 mph /  18.5 km/h 73 % 0.00 in /  0 mm
10:38 56.7 °F /  13.7 °C 48.5 °F /  9.2 °C 29.63 in /  1003.3 hPa North 6.2 mph /  10 km/h 10.4 mph /  16.7 km/h 74 % 0.00 in /  0 mm
10:43 56.7 °F /  13.7 °C 48.1 °F /  8.9 °C 29.64 in /  1003.6 hPa NNW 5.2 mph /  8.4 km/h 8.1 mph /  13 km/h 73 % 0.00 in /  0 mm
10:48 56.8 °F /  13.8 °C 48.2 °F /  9 °C 29.64 in /  1003.6 hPa NNE 3.1 mph /  5 km/h 10.4 mph /  16.7 km/h 73 % 0.00 in /  0 mm
10:53 56.8 °F /  13.8 °C 48.6 °F /  9.2 °C 29.63 in /  1003.3 hPa NNW 4.1 mph /  6.6 km/h 10.4 mph /  16.7 km/h 74 % 0.00 in /  0 mm
10:58 56.9 °F /  13.8 °C 48.7 °F /  9.3 °C 29.64 in /  1003.6 hPa NW 2.1 mph /  3.4 km/h 3.5 mph /  5.6 km/h 74 % 0.00 in /  0 mm
11:03 57.0 °F /  13.9 °C 48.4 °F /  9.1 °C 29.63 in /  1003.3 hPa NNW 2.7 mph /  4.3 km/h 6.9 mph /  11.1 km/h 73 % 0.00 in /  0 mm
11:08 57.1 °F /  13.9 °C 48.5 °F /  9.2 °C 29.63 in /  1003.3 hPa North 2.5 mph /  4 km/h 9.2 mph /  14.8 km/h 73 % 0.00 in /  0 mm
11:13 57.3 °F /  14.1 °C 49.1 °F /  9.5 °C 29.63 in /  1003.3 hPa NW 2.8 mph /  4.5 km/h 7.0 mph /  11.3 km/h 74 % 0.00 in /  0 mm
11:18 57.5 °F /  14.2 °C 48.5 °F /  9.2 °C 29.64 in /  1003.6 hPa NNW 4.3 mph /  6.9 km/h 11.5 mph /  18.5 km/h 72 % 0.00 in /  0 mm
11:20 57.5 °F /  14.2 °C 48.5 °F /  9.2 °C 29.64 in /  1003.6 hPa NNW 4.7 mph /  7.6 km/h 9.0 mph /  14.5 km/h 72 % 0.00 in /  0 mm
11:25 57.5 °F /  14.2 °C 48.5 °F /  9.2 °C 29.64 in /  1003.6 hPa WNW 3.7 mph /  6 km/h 6.9 mph /  11.1 km/h 72 % 0.00 in /  0 mm
11:30 57.5 °F /  14.2 °C 48.5 °F /  9.2 °C 29.64 in /  1003.6 hPa SW 3.9 mph /  6.3 km/h 5.8 mph /  9.3 km/h 72 % 0.00 in /  0 mm
11:35 57.6 °F /  14.2 °C 49.0 °F /  9.4 °C 29.64 in /  1003.6 hPa WNW 5.4 mph /  8.7 km/h 8.1 mph /  13 km/h 73 % 0.00 in /  0 mm
11:40 57.6 °F /  14.2 °C 48.6 °F /  9.2 °C 29.65 in /  1003.9 hPa WNW 0.6 mph /  1 km/h 8.1 mph /  13 km/h 72 % 0.00 in /  0 mm
11:45 57.6 °F /  14.2 °C 48.6 °F /  9.2 °C 29.64 in /  1003.6 hPa NW 6.2 mph /  10 km/h 9.2 mph /  14.8 km/h 72 % 0.00 in /  0 mm
11:51 57.5 °F /  14.2 °C 48.9 °F /  9.4 °C 29.65 in /  1003.9 hPa North 2.9 mph /  4.7 km/h 5.0 mph /  8 km/h 73 % 0.00 in /  0 mm
11:56 57.4 °F /  14.1 °C 48.8 °F /  9.3 °C 29.65 in /  1003.9 hPa NNW 2.0 mph /  3.2 km/h 10.0 mph /  16.1 km/h 73 % 0.00 in /  0 mm
12:01 57.3 °F /  14.1 °C 48.7 °F /  9.3 °C 29.64 in /  1003.6 hPa North 2.3 mph /  3.7 km/h 10.4 mph /  16.7 km/h 73 % 0.00 in /  0 mm
12:06 57.2 °F /  14 °C 48.3 °F /  9.1 °C 29.64 in /  1003.6 hPa NNW 1.3 mph /  2.1 km/h 5.0 mph /  8 km/h 72 % 0.00 in /  0 mm
12:11 57.2 °F /  14 °C 48.6 °F /  9.2 °C 29.64 in /  1003.6 hPa NNE 0.2 mph /  0.3 km/h 2.3 mph /  3.7 km/h 73 % 0.00 in /  0 mm
12:16 57.1 °F /  13.9 °C 48.5 °F /  9.2 °C 29.64 in /  1003.6 hPa NW 2.6 mph /  4.2 km/h 4.6 mph /  7.4 km/h 73 % 0.00 in /  0 mm
12:21 57.1 °F /  13.9 °C 48.5 °F /  9.2 °C 29.64 in /  1003.6 hPa North 4.0 mph /  6.4 km/h 5.8 mph /  9.3 km/h 73 % 0.00 in /  0 mm
12:26 57.1 °F /  13.9 °C 47.8 °F /  8.8 °C 29.63 in /  1003.3 hPa WNW 3.6 mph /  5.8 km/h 10.4 mph /  16.7 km/h 71 % 0.00 in /  0 mm
12:31 57.0 °F /  13.9 °C 47.7 °F /  8.7 °C 29.64 in /  1003.6 hPa NNW 2.0 mph /  3.2 km/h 6.9 mph /  11.1 km/h 71 % 0.00 in /  0 mm
12:36 56.9 °F /  13.8 °C 48.0 °F /  8.9 °C 29.64 in /  1003.6 hPa North 2.2 mph /  3.5 km/h 8.1 mph /  13 km/h 72 % 0.00 in /  0 mm
12:41 56.9 °F /  13.8 °C 47.6 °F /  8.7 °C 29.64 in /  1003.6 hPa North 4.0 mph /  6.4 km/h 10.4 mph /  16.7 km/h 71 % 0.00 in /  0 mm
12:46 56.8 °F /  13.8 °C 47.5 °F /  8.6 °C 29.64 in /  1003.6 hPa NE 3.0 mph /  4.8 km/h 8.1 mph /  13 km/h 71 % 0.00 in /  0 mm
12:51 56.8 °F /  13.8 °C 47.9 °F /  8.8 °C 29.64 in /  1003.6 hPa WNW 3.9 mph /  6.3 km/h 11.0 mph /  17.7 km/h 72 % 0.00 in /  0 mm
12:56 56.8 °F /  13.8 °C 47.5 °F /  8.6 °C 29.64 in /  1003.6 hPa NNE 6.4 mph /  10.3 km/h 8.1 mph /  13 km/h 71 % 0.00 in /  0 mm
13:01 56.8 °F /  13.8 °C 47.1 °F /  8.4 °C 29.64 in /  1003.6 hPa NW 7.0 mph /  11.3 km/h 9.0 mph /  14.5 km/h 70 % 0.00 in /  0 mm
13:06 56.9 °F /  13.8 °C 47.6 °F /  8.7 °C 29.63 in /  1003.3 hPa North 4.3 mph /  6.9 km/h 9.2 mph /  14.8 km/h 71 % 0.00 in /  0 mm
13:11 56.9 °F /  13.8 °C 47.6 °F /  8.7 °C 29.63 in /  1003.3 hPa NNW 1.2 mph /  1.9 km/h 8.1 mph /  13 km/h 71 % 0.00 in /  0 mm
13:17 56.9 °F /  13.8 °C 48.0 °F /  8.9 °C 29.64 in /  1003.6 hPa NW 4.0 mph /  6.4 km/h 8.1 mph /  13 km/h 72 % 0.00 in /  0 mm
13:22 56.9 °F /  13.8 °C 47.6 °F /  8.7 °C 29.63 in /  1003.3 hPa NW 4.2 mph /  6.8 km/h 9.2 mph /  14.8 km/h 71 % 0.00 in /  0 mm
13:27 56.8 °F /  13.8 °C 47.1 °F /  8.4 °C 29.63 in /  1003.3 hPa WNW 2.1 mph /  3.4 km/h 10.4 mph /  16.7 km/h 70 % 0.00 in /  0 mm
13:32 56.8 °F /  13.8 °C 47.9 °F /  8.8 °C 29.63 in /  1003.3 hPa NNW 2.1 mph /  3.4 km/h 8.1 mph /  13 km/h 72 % 0.00 in /  0 mm
13:37 56.8 °F /  13.8 °C 47.5 °F /  8.6 °C 29.63 in /  1003.3 hPa NNE 5.5 mph /  8.9 km/h 11.5 mph /  18.5 km/h 71 % 0.00 in /  0 mm
13:41 56.7 °F /  13.7 °C 47.4 °F /  8.6 °C 29.63 in /  1003.3 hPa North 2.3 mph /  3.7 km/h 8.1 mph /  13 km/h 71 % 0.00 in /  0 mm
13:46 56.6 °F /  13.7 °C 47.3 °F /  8.5 °C 29.63 in /  1003.3 hPa North 2.7 mph /  4.3 km/h 6.9 mph /  11.1 km/h 71 % 0.00 in /  0 mm
13:52 56.6 °F /  13.7 °C 47.3 °F /  8.5 °C 29.63 in /  1003.3 hPa NW 5.5 mph /  8.9 km/h 9.0 mph /  14.5 km/h 71 % 0.00 in /  0 mm
13:57 56.5 °F /  13.6 °C 47.2 °F /  8.4 °C 29.63 in /  1003.3 hPa NNE 3.1 mph /  5 km/h 3.5 mph /  5.6 km/h 71 % 0.00 in /  0 mm
14:02 56.5 °F /  13.6 °C 47.2 °F /  8.4 °C 29.63 in /  1003.3 hPa North 1.4 mph /  2.3 km/h 5.8 mph /  9.3 km/h 71 % 0.00 in /  0 mm
14:07 56.4 °F /  13.6 °C 47.5 °F /  8.6 °C 29.62 in /  1002.9 hPa North 1.6 mph /  2.6 km/h 5.8 mph /  9.3 km/h 72 % 0.00 in /  0 mm
14:12 56.4 °F /  13.6 °C 47.9 °F /  8.8 °C 29.62 in /  1002.9 hPa NW 4.1 mph /  6.6 km/h 8.1 mph /  13 km/h 73 % 0.00 in /  0 mm
14:17 56.4 °F /  13.6 °C 48.2 °F /  9 °C 29.63 in /  1003.3 hPa WNW 2.4 mph /  3.9 km/h 5.0 mph /  8 km/h 74 % 0.00 in /  0 mm
14:22 56.4 °F /  13.6 °C 48.6 °F /  9.2 °C 29.63 in /  1003.3 hPa NW 4.0 mph /  6.4 km/h 10.4 mph /  16.7 km/h 75 % 0.00 in /  0 mm
14:27 56.4 °F /  13.6 °C 49.3 °F /  9.6 °C 29.63 in /  1003.3 hPa WNW 1.5 mph /  2.4 km/h 4.6 mph /  7.4 km/h 77 % 0.00 in /  0 mm
14:32 56.3 °F /  13.5 °C 49.5 °F /  9.7 °C 29.63 in /  1003.3 hPa NW 3.0 mph /  4.8 km/h 5.8 mph /  9.3 km/h 78 % 0.01 in /  0.25 mm
14:37 56.1 °F /  13.4 °C 49.7 °F /  9.8 °C 29.63 in /  1003.3 hPa NNW 0.4 mph /  0.6 km/h 2.3 mph /  3.7 km/h 79 % 0.01 in /  0.25 mm
14:42 56.0 °F /  13.3 °C 49.6 °F /  9.8 °C 29.63 in /  1003.3 hPa NW 4.0 mph /  6.4 km/h 4.6 mph /  7.4 km/h 79 % 0.01 in /  0.25 mm
14:52 55.6 °F /  13.1 °C 49.5 °F /  9.7 °C 29.64 in /  1003.6 hPa North 3.5 mph /  5.6 km/h 6.9 mph /  11.1 km/h 80 % 0.01 in /  0.25 mm
14:57 55.5 °F /  13.1 °C 49.8 °F /  9.9 °C 29.63 in /  1003.3 hPa NW 2.4 mph /  3.9 km/h 6.9 mph /  11.1 km/h 81 % 0.01 in /  0.25 mm
15:02 55.5 °F /  13.1 °C 49.8 °F /  9.9 °C 29.64 in /  1003.6 hPa NNW 3.3 mph /  5.3 km/h 11.5 mph /  18.5 km/h 81 % 0.02 in /  0.51 mm
15:08 55.5 °F /  13.1 °C 49.4 °F /  9.7 °C 29.64 in /  1003.6 hPa NW 0.7 mph /  1.1 km/h 8.1 mph /  13 km/h 80 % 0.02 in /  0.51 mm
15:13 55.7 °F /  13.2 °C 50.0 °F /  10 °C 29.64 in /  1003.6 hPa West 2.2 mph /  3.5 km/h 4.6 mph /  7.4 km/h 81 % 0.02 in /  0.51 mm
15:18 55.9 °F /  13.3 °C 49.8 °F /  9.9 °C 29.64 in /  1003.6 hPa WNW 3.5 mph /  5.6 km/h 10.4 mph /  16.7 km/h 80 % 0.02 in /  0.51 mm
15:23 56.1 °F /  13.4 °C 49.3 °F /  9.6 °C 29.65 in /  1003.9 hPa NW 3.2 mph /  5.1 km/h 5.8 mph /  9.3 km/h 78 % 0.02 in /  0.51 mm
15:28 56.4 °F /  13.6 °C 49.3 °F /  9.6 °C 29.65 in /  1003.9 hPa NNW 3.1 mph /  5 km/h 8.1 mph /  13 km/h 77 % 0.02 in /  0.51 mm
15:33 56.6 °F /  13.7 °C 48.8 °F /  9.3 °C 29.65 in /  1003.9 hPa WNW 4.2 mph /  6.8 km/h 7.0 mph /  11.3 km/h 75 % 0.01 in /  0.25 mm
15:38 56.8 °F /  13.8 °C 49.3 °F /  9.6 °C 29.65 in /  1003.9 hPa NNW 3.0 mph /  4.8 km/h 5.8 mph /  9.3 km/h 76 % 0.01 in /  0.25 mm
15:43 56.9 °F /  13.8 °C 48.7 °F /  9.3 °C 29.65 in /  1003.9 hPa NW 2.8 mph /  4.5 km/h 8.1 mph /  13 km/h 74 % 0.01 in /  0.25 mm
15:48 57.0 °F /  13.9 °C 49.5 °F /  9.7 °C 29.66 in /  1004.3 hPa West 0.4 mph /  0.6 km/h 3.5 mph /  5.6 km/h 76 % 0.01 in /  0.25 mm
15:53 57.2 °F /  14 °C 50.1 °F /  10.1 °C 29.66 in /  1004.3 hPa SW 2.8 mph /  4.5 km/h 4.6 mph /  7.4 km/h 77 % 0.01 in /  0.25 mm
15:58 57.2 °F /  14 °C 50.1 °F /  10.1 °C 29.67 in /  1004.6 hPa NW 4.5 mph /  7.2 km/h 8.1 mph /  13 km/h 77 % 0.01 in /  0.25 mm
16:03 57.2 °F /  14 °C 50.1 °F /  10.1 °C 29.67 in /  1004.6 hPa SW 4.6 mph /  7.4 km/h 11.5 mph /  18.5 km/h 77 % 0.00 in /  0 mm
16:08 57.1 °F /  13.9 °C 49.6 °F /  9.8 °C 29.67 in /  1004.6 hPa West 2.1 mph /  3.4 km/h 5.8 mph /  9.3 km/h 76 % 0.00 in /  0 mm
16:13 57.1 °F /  13.9 °C 49.6 °F /  9.8 °C 29.68 in /  1005 hPa SSW 4.0 mph /  6.4 km/h 9.2 mph /  14.8 km/h 76 % 0.00 in /  0 mm
16:18 57.0 °F /  13.9 °C 49.2 °F /  9.6 °C 29.68 in /  1005 hPa SW 3.2 mph /  5.1 km/h 5.0 mph /  8 km/h 75 % 0.00 in /  0 mm
16:23 56.9 °F /  13.8 °C 49.1 °F /  9.5 °C 29.67 in /  1004.6 hPa WNW 2.8 mph /  4.5 km/h 6.9 mph /  11.1 km/h 75 % 0.00 in /  0 mm
16:29 56.8 °F /  13.8 °C 48.6 °F /  9.2 °C 29.68 in /  1005 hPa SW 3.8 mph /  6.1 km/h 6.0 mph /  9.7 km/h 74 % 0.00 in /  0 mm
16:34 56.8 °F /  13.8 °C 49.0 °F /  9.4 °C 29.67 in /  1004.6 hPa WNW 5.4 mph /  8.7 km/h 9.2 mph /  14.8 km/h 75 % 0.00 in /  0 mm
16:39 56.8 °F /  13.8 °C 48.6 °F /  9.2 °C 29.67 in /  1004.6 hPa WNW 5.7 mph /  9.2 km/h 11.5 mph /  18.5 km/h 74 % 0.00 in /  0 mm
16:44 56.7 °F /  13.7 °C 48.1 °F /  8.9 °C 29.68 in /  1005 hPa NW 1.5 mph /  2.4 km/h 3.5 mph /  5.6 km/h 73 % 0.00 in /  0 mm
16:49 56.8 °F /  13.8 °C 48.6 °F /  9.2 °C 29.68 in /  1005 hPa WNW 2.5 mph /  4 km/h 6.9 mph /  11.1 km/h 74 % 0.00 in /  0 mm
16:54 56.8 °F /  13.8 °C 48.6 °F /  9.2 °C 29.68 in /  1005 hPa NW 2.3 mph /  3.7 km/h 4.6 mph /  7.4 km/h 74 % 0.00 in /  0 mm
16:59 56.7 °F /  13.7 °C 48.1 °F /  8.9 °C 29.69 in /  1005.3 hPa WNW 2.3 mph /  3.7 km/h 5.8 mph /  9.3 km/h 73 % 0.00 in /  0 mm
17:04 56.8 °F /  13.8 °C 48.2 °F /  9 °C 29.69 in /  1005.3 hPa West 1.4 mph /  2.3 km/h 4.6 mph /  7.4 km/h 73 % 0.00 in /  0 mm
17:09 56.8 °F /  13.8 °C 48.2 °F /  9 °C 29.69 in /  1005.3 hPa West 2.4 mph /  3.9 km/h 6.9 mph /  11.1 km/h 73 % 0.00 in /  0 mm
17:14 56.7 °F /  13.7 °C 48.1 °F /  8.9 °C 29.68 in /  1005 hPa North 2.0 mph /  3.2 km/h 4.6 mph /  7.4 km/h 73 % 0.00 in /  0 mm
17:19 56.8 °F /  13.8 °C 48.2 °F /  9 °C 29.69 in /  1005.3 hPa WNW 2.7 mph /  4.3 km/h 6.9 mph /  11.1 km/h 73 % 0.00 in /  0 mm
17:24 56.7 °F /  13.7 °C 48.1 °F /  8.9 °C 29.69 in /  1005.3 hPa NW 0.6 mph /  1 km/h 3.5 mph /  5.6 km/h 73 % 0.00 in /  0 mm
17:29 56.7 °F /  13.7 °C 47.8 °F /  8.8 °C 29.69 in /  1005.3 hPa West 0.7 mph /  1.1 km/h 2.3 mph /  3.7 km/h 72 % 0.00 in /  0 mm
17:34 56.7 °F /  13.7 °C 47.8 °F /  8.8 °C 29.69 in /  1005.3 hPa NW 0.4 mph /  0.6 km/h 2.0 mph /  3.2 km/h 72 % 0.00 in /  0 mm
17:39 56.6 °F /  13.7 °C 47.3 °F /  8.5 °C 29.70 in /  1005.6 hPa WNW 2.6 mph /  4.2 km/h 3.5 mph /  5.6 km/h 71 % 0.00 in /  0 mm
17:44 56.6 °F /  13.7 °C 47.7 °F /  8.7 °C 29.70 in /  1005.6 hPa WNW 0.9 mph /  1.4 km/h 3.5 mph /  5.6 km/h 72 % 0.00 in /  0 mm
17:50 56.5 °F /  13.6 °C 47.6 °F /  8.7 °C 29.71 in /  1006 hPa West 1.1 mph /  1.8 km/h 3.5 mph /  5.6 km/h 72 % 0.00 in /  0 mm
17:55 56.5 °F /  13.6 °C 47.6 °F /  8.7 °C 29.71 in /  1006 hPa WNW 1.7 mph /  2.7 km/h 4.6 mph /  7.4 km/h 72 % 0.00 in /  0 mm
18:00 56.4 °F /  13.6 °C 47.5 °F /  8.6 °C 29.71 in /  1006 hPa WSW 1.5 mph /  2.4 km/h 3.5 mph /  5.6 km/h 72 % 0.00 in /  0 mm
18:05 56.4 °F /  13.6 °C 47.9 °F /  8.8 °C 29.71 in /  1006 hPa SW 1.7 mph /  2.7 km/h 3.5 mph /  5.6 km/h 73 % 0.00 in /  0 mm
18:10 56.4 °F /  13.6 °C 48.2 °F /  9 °C 29.72 in /  1006.3 hPa WSW 0.9 mph /  1.4 km/h 3.5 mph /  5.6 km/h 74 % 0.00 in /  0 mm
18:15 56.3 °F /  13.5 °C 48.1 °F /  8.9 °C 29.72 in /  1006.3 hPa WSW 0.5 mph /  0.8 km/h 2.3 mph /  3.7 km/h 74 % 0.00 in /  0 mm
18:20 56.2 °F /  13.4 °C 48.0 °F /  8.9 °C 29.72 in /  1006.3 hPa Calm     74 % 0.00 in /  0 mm
18:25 56.1 °F /  13.4 °C 48.3 °F /  9.1 °C 29.72 in /  1006.3 hPa Calm     75 % 0.00 in /  0 mm
18:30 56.0 °F /  13.3 °C 48.2 °F /  9 °C 29.72 in /  1006.3 hPa Calm     75 % 0.00 in /  0 mm
18:35 55.9 °F /  13.3 °C 48.1 °F /  8.9 °C 29.72 in /  1006.3 hPa Calm     75 % 0.00 in /  0 mm
18:40 55.8 °F /  13.2 °C 48.3 °F /  9.1 °C 29.73 in /  1006.7 hPa Calm     76 % 0.00 in /  0 mm
18:45 55.7 °F /  13.2 °C 48.2 °F /  9 °C 29.73 in /  1006.7 hPa WSW 0.6 mph /  1 km/h 2.3 mph /  3.7 km/h 76 % 0.00 in /  0 mm
18:50 55.5 °F /  13.1 °C 48.1 °F /  8.9 °C 29.73 in /  1006.7 hPa WSW 1.0 mph /  1.6 km/h 3.5 mph /  5.6 km/h 76 % 0.00 in /  0 mm
18:55 55.4 °F /  13 °C 48.0 °F /  8.9 °C 29.73 in /  1006.7 hPa Calm     76 % 0.00 in /  0 mm
19:00 55.2 °F /  12.9 °C 47.8 °F /  8.8 °C 29.73 in /  1006.7 hPa Calm   1.0 mph /  1.6 km/h 76 % 0.00 in /  0 mm
19:05 55.1 °F /  12.8 °C 48.0 °F /  8.9 °C 29.74 in /  1007 hPa WSW 2.0 mph /  3.2 km/h 3.5 mph /  5.6 km/h 77 % 0.00 in /  0 mm
19:10 54.9 °F /  12.7 °C 47.8 °F /  8.8 °C 29.75 in /  1007.3 hPa SW 0.5 mph /  0.8 km/h 3.5 mph /  5.6 km/h 77 % 0.00 in /  0 mm
19:16 54.7 °F /  12.6 °C 47.6 °F /  8.7 °C 29.75 in /  1007.3 hPa West 1.8 mph /  2.9 km/h 4.0 mph /  6.4 km/h 77 % 0.00 in /  0 mm
19:21 54.6 °F /  12.6 °C 47.2 °F /  8.4 °C 29.75 in /  1007.3 hPa WNW 3.0 mph /  4.8 km/h 8.0 mph /  12.9 km/h 76 % 0.00 in /  0 mm
19:26 54.7 °F /  12.6 °C 47.3 °F /  8.5 °C 29.76 in /  1007.7 hPa WNW 7.0 mph /  11.3 km/h 15.0 mph /  24.1 km/h 76 % 0.00 in /  0 mm
19:31 55.0 °F /  12.8 °C 46.5 °F /  8.1 °C 29.76 in /  1007.7 hPa West 6.0 mph /  9.7 km/h 14.0 mph /  22.5 km/h 73 % 0.00 in /  0 mm
19:36 55.2 °F /  12.9 °C 46.3 °F /  7.9 °C 29.76 in /  1007.7 hPa WNW 5.0 mph /  8 km/h 10.0 mph /  16.1 km/h 72 % 0.00 in /  0 mm
19:41 55.4 °F /  13 °C 45.4 °F /  7.4 °C 29.77 in /  1008 hPa WNW 7.0 mph /  11.3 km/h 15.0 mph /  24.1 km/h 69 % 0.00 in /  0 mm
19:46 55.6 °F /  13.1 °C 45.6 °F /  7.6 °C 29.77 in /  1008 hPa West 2.0 mph /  3.2 km/h 17.0 mph /  27.4 km/h 69 % 0.00 in /  0 mm
19:51 55.7 °F /  13.2 °C 44.9 °F /  7.2 °C 29.78 in /  1008.4 hPa WNW 5.5 mph /  8.9 km/h 11.5 mph /  18.5 km/h 67 % 0.00 in /  0 mm
19:56 55.7 °F /  13.2 °C 44.5 °F /  6.9 °C 29.78 in /  1008.4 hPa WNW 6.0 mph /  9.7 km/h 16.0 mph /  25.7 km/h 66 % 0.00 in /  0 mm
20:01 55.8 °F /  13.2 °C 45.0 °F /  7.2 °C 29.79 in /  1008.7 hPa WNW 6.0 mph /  9.7 km/h 11.5 mph /  18.5 km/h 67 % 0.00 in /  0 mm
20:06 55.8 °F /  13.2 °C 44.6 °F /  7 °C 29.79 in /  1008.7 hPa NW 4.4 mph /  7.1 km/h 11.5 mph /  18.5 km/h 66 % 0.00 in /  0 mm
20:11 55.7 °F /  13.2 °C 44.1 °F /  6.7 °C 29.79 in /  1008.7 hPa West 5.1 mph /  8.2 km/h 6.9 mph /  11.1 km/h 65 % 0.00 in /  0 mm
20:16 55.6 °F /  13.1 °C 44.4 °F /  6.9 °C 29.79 in /  1008.7 hPa WSW 3.7 mph /  6 km/h 10.4 mph /  16.7 km/h 66 % 0.00 in /  0 mm
20:21 55.5 °F /  13.1 °C 44.3 °F /  6.8 °C 29.80 in /  1009 hPa WSW 6.3 mph /  10.1 km/h 11.5 mph /  18.5 km/h 66 % 0.00 in /  0 mm
20:26 55.4 °F /  13 °C 44.2 °F /  6.8 °C 29.80 in /  1009 hPa NW 5.0 mph /  8 km/h 12.0 mph /  19.3 km/h 66 % 0.00 in /  0 mm
20:31 55.3 °F /  12.9 °C 44.1 °F /  6.7 °C 29.80 in /  1009 hPa West 3.6 mph /  5.8 km/h 8.1 mph /  13 km/h 66 % 0.00 in /  0 mm
20:36 55.2 °F /  12.9 °C 44.0 °F /  6.7 °C 29.80 in /  1009 hPa SSW 4.4 mph /  7.1 km/h 12.7 mph /  20.4 km/h 66 % 0.00 in /  0 mm
20:41 55.2 °F /  12.9 °C 44.0 °F /  6.7 °C 29.80 in /  1009 hPa WNW 4.8 mph /  7.7 km/h 10.4 mph /  16.7 km/h 66 % 0.00 in /  0 mm
20:46 55.1 °F /  12.8 °C 43.5 °F /  6.4 °C 29.81 in /  1009.4 hPa West 4.8 mph /  7.7 km/h 13.8 mph /  22.2 km/h 65 % 0.00 in /  0 mm
20:51 55.1 °F /  12.8 °C 43.5 °F /  6.4 °C 29.81 in /  1009.4 hPa West 6.4 mph /  10.3 km/h 9.2 mph /  14.8 km/h 65 % 0.00 in /  0 mm
20:56 55.1 °F /  12.8 °C 43.5 °F /  6.4 °C 29.81 in /  1009.4 hPa West 6.7 mph /  10.8 km/h 12.7 mph /  20.4 km/h 65 % 0.00 in /  0 mm
21:01 55.1 °F /  12.8 °C 43.5 °F /  6.4 °C 29.81 in /  1009.4 hPa WNW 7.8 mph /  12.6 km/h 11.5 mph /  18.5 km/h 65 % 0.00 in /  0 mm
21:06 55.0 °F /  12.8 °C 43.4 °F /  6.3 °C 29.82 in /  1009.7 hPa NW 6.4 mph /  10.3 km/h 8.1 mph /  13 km/h 65 % 0.00 in /  0 mm
21:12 55.0 °F /  12.8 °C 43.4 °F /  6.3 °C 29.82 in /  1009.7 hPa West 3.7 mph /  6 km/h 12.7 mph /  20.4 km/h 65 % 0.00 in /  0 mm
21:17 54.9 °F /  12.7 °C 42.5 °F /  5.8 °C 29.82 in /  1009.7 hPa WSW 8.3 mph /  13.4 km/h 16.1 mph /  25.9 km/h 63 % 0.00 in /  0 mm
21:22 54.8 °F /  12.7 °C 42.4 °F /  5.8 °C 29.83 in /  1010 hPa WSW 6.5 mph /  10.5 km/h 12.7 mph /  20.4 km/h 63 % 0.00 in /  0 mm
21:27 54.7 °F /  12.6 °C 42.3 °F /  5.7 °C 29.83 in /  1010 hPa West 5.8 mph /  9.3 km/h 15.0 mph /  24.1 km/h 63 % 0.00 in /  0 mm
21:32 54.6 °F /  12.6 °C 41.8 °F /  5.4 °C 29.84 in /  1010.4 hPa NNW 6.9 mph /  11.1 km/h 17.3 mph /  27.8 km/h 62 % 0.00 in /  0 mm
21:37 54.5 °F /  12.5 °C 42.2 °F /  5.7 °C 29.83 in /  1010 hPa West 4.0 mph /  6.4 km/h 8.1 mph /  13 km/h 63 % 0.00 in /  0 mm
21:42 54.5 °F /  12.5 °C 42.2 °F /  5.7 °C 29.83 in /  1010 hPa NW 1.7 mph /  2.7 km/h 8.0 mph /  12.9 km/h 63 % 0.00 in /  0 mm
21:47 54.4 °F /  12.4 °C 42.1 °F /  5.6 °C 29.84 in /  1010.4 hPa SW 5.6 mph /  9 km/h 15.0 mph /  24.1 km/h 63 % 0.00 in /  0 mm
21:52 54.2 °F /  12.3 °C 41.9 °F /  5.5 °C 29.84 in /  1010.4 hPa WNW 2.8 mph /  4.5 km/h 8.1 mph /  13 km/h 63 % 0.00 in /  0 mm
21:57 54.1 °F /  12.3 °C 42.2 °F /  5.7 °C 29.84 in /  1010.4 hPa West 5.0 mph /  8 km/h 11.5 mph /  18.5 km/h 64 % 0.00 in /  0 mm
22:02 54.0 °F /  12.2 °C 42.1 °F /  5.6 °C 29.85 in /  1010.7 hPa WSW 4.5 mph /  7.2 km/h 9.2 mph /  14.8 km/h 64 % 0.00 in /  0 mm
22:07 53.9 °F /  12.2 °C 41.6 °F /  5.3 °C 29.85 in /  1010.7 hPa SW 7.5 mph /  12.1 km/h 16.1 mph /  25.9 km/h 63 % 0.00 in /  0 mm
22:12 53.8 °F /  12.1 °C 41.5 °F /  5.3 °C 29.85 in /  1010.7 hPa WSW 1.9 mph /  3.1 km/h 16.1 mph /  25.9 km/h 63 % 0.00 in /  0 mm
22:17 53.7 °F /  12.1 °C 41.8 °F /  5.4 °C 29.85 in /  1010.7 hPa West 7.1 mph /  11.4 km/h 12.7 mph /  20.4 km/h 64 % 0.00 in /  0 mm
22:23 53.6 °F /  12 °C 41.7 °F /  5.4 °C 29.85 in /  1010.7 hPa West 3.6 mph /  5.8 km/h 6.9 mph /  11.1 km/h 64 % 0.00 in /  0 mm
22:28 53.5 °F /  11.9 °C 40.8 °F /  4.9 °C 29.85 in /  1010.7 hPa West 9.2 mph /  14.8 km/h 17.3 mph /  27.8 km/h 62 % 0.00 in /  0 mm
22:33 53.4 °F /  11.9 °C 40.7 °F /  4.8 °C 29.86 in /  1011.1 hPa NW 4.8 mph /  7.7 km/h 17.3 mph /  27.8 km/h 62 % 0.00 in /  0 mm
22:38 53.3 °F /  11.8 °C 40.6 °F /  4.8 °C 29.86 in /  1011.1 hPa WNW 6.0 mph /  9.7 km/h 11.5 mph /  18.5 km/h 62 % 0.00 in /  0 mm
22:43 53.3 °F /  11.8 °C 41.4 °F /  5.2 °C 29.86 in /  1011.1 hPa WSW 5.0 mph /  8 km/h 10.0 mph /  16.1 km/h 64 % 0.00 in /  0 mm
22:48 53.3 °F /  11.8 °C 41.4 °F /  5.2 °C 29.86 in /  1011.1 hPa NW 5.8 mph /  9.3 km/h 11.5 mph /  18.5 km/h 64 % 0.00 in /  0 mm
22:53 53.2 °F /  11.8 °C 40.9 °F /  4.9 °C 29.87 in /  1011.4 hPa WSW 6.0 mph /  9.7 km/h 11.5 mph /  18.5 km/h 63 % 0.00 in /  0 mm
22:58 53.2 °F /  11.8 °C 41.3 °F /  5.2 °C 29.87 in /  1011.4 hPa West 3.9 mph /  6.3 km/h 8.1 mph /  13 km/h 64 % 0.00 in /  0 mm
23:03 53.1 °F /  11.7 °C 41.2 °F /  5.1 °C 29.86 in /  1011.1 hPa West 2.1 mph /  3.4 km/h 8.1 mph /  13 km/h 64 % 0.00 in /  0 mm
23:08 52.9 °F /  11.6 °C 41.0 °F /  5 °C 29.86 in /  1011.1 hPa WNW 4.0 mph /  6.4 km/h 6.9 mph /  11.1 km/h 64 % 0.00 in /  0 mm
23:13 52.8 °F /  11.6 °C 41.4 °F /  5.2 °C 29.86 in /  1011.1 hPa WNW 3.8 mph /  6.1 km/h 8.1 mph /  13 km/h 65 % 0.00 in /  0 mm
23:18 52.7 °F /  11.5 °C 41.3 °F /  5.2 °C 29.86 in /  1011.1 hPa SSW 3.2 mph /  5.1 km/h 5.0 mph /  8 km/h 65 % 0.00 in /  0 mm
23:23 52.6 °F /  11.4 °C 41.6 °F /  5.3 °C 29.86 in /  1011.1 hPa West 4.1 mph /  6.6 km/h 7.0 mph /  11.3 km/h 66 % 0.00 in /  0 mm
23:28 52.5 °F /  11.4 °C 41.5 °F /  5.3 °C 29.86 in /  1011.1 hPa West 3.4 mph /  5.5 km/h 7.0 mph /  11.3 km/h 66 % 0.00 in /  0 mm
23:33 52.4 °F /  11.3 °C 41.4 °F /  5.2 °C 29.86 in /  1011.1 hPa WNW 4.6 mph /  7.4 km/h 8.0 mph /  12.9 km/h 66 % 0.00 in /  0 mm
23:38 52.2 °F /  11.2 °C 41.2 °F /  5.1 °C 29.86 in /  1011.1 hPa West 4.1 mph /  6.6 km/h 11.5 mph /  18.5 km/h 66 % 0.00 in /  0 mm
23:43 52.1 °F /  11.2 °C 41.1 °F /  5.1 °C 29.86 in /  1011.1 hPa SSW 4.7 mph /  7.6 km/h 13.8 mph /  22.2 km/h 66 % 0.00 in /  0 mm
23:49 52.1 °F /  11.2 °C 41.5 °F /  5.3 °C 29.86 in /  1011.1 hPa WNW 5.8 mph /  9.3 km/h 10.4 mph /  16.7 km/h 67 % 0.00 in /  0 mm
23:54 52.0 °F /  11.1 °C 41.4 °F /  5.2 °C 29.86 in /  1011.1 hPa West 1.6 mph /  2.6 km/h 8.1 mph /  13 km/h 67 % 0.00 in /  0 mm
23:59 51.9 °F /  11.1 °C 41.7 °F /  5.4 °C 29.87 in /  1011.4 hPa SW 3.4 mph /  5.5 km/h 8.1 mph /  13 km/h 68 % 0.00 in /  0 mm
Crab Meadow Weather
Compliments of Weather Underground - 3 mb

Script developed by  Jim McMurry - jmcmurry@mwt.net Adapted for the template by  Wim van der Kuil - Leuven-Template.eu

Recycling: Americans use 2,500,000 plastic bottles every hour! Most of them are thrown away!